Time;durP1;ratioP1;P1;durP2;ratioP2;P2;SDS_P1;SDS_P2;PMS_P1;PMS_P2;Temp;Humidity;BMP_temperature;BMP_pressure;BME280_temperature;BME280_humidity;BME280_pressure;Samples;Min_cycle;Max_cycle;Signal;HPM_P1;HPM_P2
2024/04/25 00:00:56;;;;;;;0.38;0.15;;;5.50;1.00;;;;;;5206480;27;20003;-63
2024/04/25 00:03:22;;;;;;;0.08;0.08;;;5.60;1.00;;;;;;5231259;27;20355;-63
2024/04/25 00:05:48;;;;;;;0.00;0.00;;;5.60;1.00;;;;;;5200793;27;20018;-63
2024/04/25 00:08:14;;;;;;;0.17;0.17;;;5.60;1.00;;;;;;5176624;27;20003;-63
2024/04/25 00:10:40;;;;;;;0.10;0.10;;;5.60;1.00;;;;;;5228976;27;20014;-63
2024/04/25 00:13:07;;;;;;;0.10;0.10;;;5.60;1.00;;;;;;5211192;27;20015;-63
2024/04/25 00:15:33;;;;;;;0.20;0.20;;;5.60;99.90;;;;;;5185547;27;20098;-63
2024/04/25 00:17:59;;;;;;;0.10;0.10;;;5.60;99.90;;;;;;5223526;27;20002;-63
2024/04/25 00:20:27;;;;;;;0.20;0.10;;;5.60;99.90;;;;;;5231866;27;20007;-63
2024/04/25 00:22:53;;;;;;;0.38;0.20;;;5.50;99.90;;;;;;5231186;27;20050;-63
2024/04/25 00:25:39;;;;;;;0.10;0.10;;;5.60;99.90;;;;;;5198646;27;20022;-63
2024/04/25 00:28:05;;;;;;;0.00;0.00;;;5.50;1.00;;;;;;5230393;27;20031;-63
2024/04/25 00:30:30;;;;;;;0.20;0.10;;;5.60;99.90;;;;;;5203602;27;20051;-63
2024/04/25 00:32:58;;;;;;;1.65;0.10;;;5.50;99.90;;;;;;5207647;27;20104;-63
2024/04/25 00:35:27;;;;;;;0.00;0.00;;;5.50;1.00;;;;;;5230466;27;20556;-63
2024/04/25 00:37:53;;;;;;;0.00;0.00;;;5.50;1.00;;;;;;5210001;27;19999;-63
2024/04/25 00:40:19;;;;;;;0.10;0.10;;;5.50;1.00;;;;;;5226488;27;20025;-63
2024/04/25 00:42:44;;;;;;;0.00;0.00;;;5.60;1.00;;;;;;5230088;27;20081;-63
2024/04/25 00:45:10;;;;;;;0.10;0.10;;;5.60;1.00;;;;;;5231263;27;20341;-63
2024/04/25 00:47:56;;;;;;;0.10;0.00;;;5.60;1.00;;;;;;5184188;27;20014;-63
2024/04/25 00:50:23;;;;;;;0.00;0.00;;;5.70;1.00;;;;;;5228986;27;20509;-63
2024/04/25 00:52:49;;;;;;;0.10;0.10;;;5.70;11.30;;;;;;5231502;27;20020;-63
2024/04/25 00:55:15;;;;;;;0.05;0.05;;;5.70;42.20;;;;;;5222844;27;20482;-63
2024/04/25 00:57:43;;;;;;;0.00;0.00;;;5.70;50.70;;;;;;5230021;27;19999;-63
2024/04/25 01:00:11;;;;;;;0.00;0.00;;;5.70;61.40;;;;;;5231117;27;20043;-63
2024/04/25 01:02:38;;;;;;;0.00;0.00;;;5.70;54.80;;;;;;5226536;27;20018;-63
2024/04/25 01:05:05;;;;;;;0.00;0.00;;;5.80;13.50;;;;;;5175546;27;20015;-63
2024/04/25 01:07:31;;;;;;;0.00;0.00;;;5.80;14.40;;;;;;5230107;27;20018;-63
2024/04/25 01:09:57;;;;;;;0.00;0.00;;;5.80;30.50;;;;;;5229653;27;20019;-63
2024/04/25 01:12:27;;;;;;;0.00;0.00;;;5.80;6.70;;;;;;5200936;27;20433;-63
2024/04/25 01:14:53;;;;;;;0.00;0.00;;;5.80;1.00;;;;;;5217045;27;20022;-63
2024/04/25 01:17:19;;;;;;;0.00;0.00;;;5.90;1.00;;;;;;5224627;27;20003;-63
2024/04/25 01:19:45;;;;;;;0.00;0.00;;;5.80;1.00;;;;;;5221717;27;20011;-63
2024/04/25 01:22:12;;;;;;;0.00;0.00;;;5.80;99.90;;;;;;5198526;27;20007;-63
2024/04/25 01:24:38;;;;;;;0.00;0.00;;;5.80;99.90;;;;;;5207796;27;20018;-63
2024/04/25 01:27:05;;;;;;;0.00;0.00;;;5.80;99.90;;;;;;5224472;27;20015;-63
2024/04/25 01:29:33;;;;;;;0.00;0.00;;;5.80;99.90;;;;;;5229589;27;20038;-63
2024/04/25 01:32:00;;;;;;;0.00;0.00;;;5.90;99.90;;;;;;5188453;27;20018;-63
2024/04/25 01:34:26;;;;;;;0.00;0.00;;;5.90;99.90;;;;;;5225584;27;20061;-63
2024/04/25 01:36:53;;;;;;;0.00;0.00;;;5.90;1.00;;;;;;5188180;27;20521;-63
2024/04/25 01:39:19;;;;;;;0.00;0.00;;;6.00;1.00;;;;;;5190132;27;20014;-63
2024/04/25 01:41:45;;;;;;;0.00;0.00;;;6.00;1.00;;;;;;5196054;27;20014;-63
2024/04/25 01:44:11;;;;;;;0.13;0.08;;;6.00;1.00;;;;;;5202643;27;20491;-64
2024/04/25 01:46:38;;;;;;;0.00;0.00;;;6.00;1.00;;;;;;5225396;27;19999;-63
2024/04/25 01:49:04;;;;;;;0.00;0.00;;;5.90;99.90;;;;;;5231484;27;20264;-63
2024/04/25 01:51:31;;;;;;;0.00;0.00;;;5.70;99.90;;;;;;5220383;27;20013;-63
2024/04/25 01:53:57;;;;;;;0.00;0.00;;;5.60;1.00;;;;;;5195702;27;20458;-63
2024/04/25 01:56:23;;;;;;;0.00;0.00;;;5.60;1.00;;;;;;5202407;27;20003;-63
2024/04/25 01:58:52;;;;;;;0.00;0.00;;;5.50;1.00;;;;;;5200112;27;20003;-63
2024/04/25 02:01:19;;;;;;;0.00;0.00;;;5.50;1.00;;;;;;5218916;27;20003;-64
2024/04/25 02:03:45;;;;;;;0.00;0.00;;;5.50;1.00;;;;;;5229444;27;20454;-63
2024/04/25 02:06:14;;;;;;;0.00;0.00;;;5.50;1.00;;;;;;5189330;27;20011;-63
2024/04/25 02:08:40;;;;;;;0.05;0.05;;;5.50;27.80;;;;;;5226971;27;20448;-63
2024/04/25 02:11:25;;;;;;;0.00;0.00;;;5.40;31.20;;;;;;5199433;27;20011;-63
2024/04/25 02:13:51;;;;;;;0.10;0.10;;;5.40;43.10;;;;;;5201501;27;20022;-63
2024/04/25 02:16:17;;;;;;;0.10;0.10;;;5.40;73.30;;;;;;5199607;27;20154;-63
2024/04/25 02:18:43;;;;;;;0.00;0.00;;;5.40;99.90;;;;;;5231277;27;20010;-64
2024/04/25 02:26:42;;;;;;;0.00;0.00;;;5.30;99.90;;;;;;5191867;27;20014;-63
2024/04/25 02:29:08;;;;;;;0.00;0.00;;;5.30;99.90;;;;;;5226894;27;20002;-63
2024/04/25 02:31:39;;;;;;;0.00;0.00;;;5.30;1.00;;;;;;5201282;27;20546;-63
2024/04/25 02:34:09;;;;;;;0.00;0.00;;;5.20;1.00;;;;;;5229289;27;19998;-61
2024/04/25 02:36:38;;;;;;;0.00;0.00;;;5.20;1.00;;;;;;5200188;27;20003;-64
2024/04/25 02:39:23;;;;;;;0.00;0.00;;;5.20;1.00;;;;;;5211051;27;20021;-64
2024/04/25 02:41:49;;;;;;;0.13;0.10;;;5.30;52.20;;;;;;5195189;27;20012;-63
2024/04/25 02:44:15;;;;;;;0.00;0.00;;;5.30;99.90;;;;;;5210451;27;20019;-64
2024/04/25 02:46:41;;;;;;;0.00;0.00;;;5.30;99.90;;;;;;5191897;27;20012;-64
2024/04/25 02:49:07;;;;;;;0.00;0.00;;;5.30;99.90;;;;;;5230282;27;20086;-64
2024/04/25 02:51:33;;;;;;;0.00;0.00;;;5.30;99.90;;;;;;5228140;27;20022;-64
2024/04/25 02:54:06;;;;;;;0.00;0.00;;;5.20;99.90;;;;;;5228027;27;20006;-64
2024/04/25 02:56:32;;;;;;;0.00;0.00;;;5.30;99.90;;;;;;5219608;27;20358;-64
2024/04/25 02:58:59;;;;;;;0.00;0.00;;;5.30;99.90;;;;;;5226974;27;20003;-64
2024/04/25 03:01:24;;;;;;;0.00;0.00;;;5.30;99.90;;;;;;5197632;27;20002;-64
2024/04/25 03:03:50;;;;;;;0.00;0.00;;;5.20;99.90;;;;;;5223460;27;20471;-64
2024/04/25 03:06:36;;;;;;;0.00;0.00;;;5.20;99.90;;;;;;5205574;27;20350;-64
2024/04/25 03:09:02;;;;;;;0.00;0.00;;;5.20;99.90;;;;;;5232083;27;20003;-64
2024/04/25 03:11:48;;;;;;;0.00;0.00;;;5.20;99.90;;;;;;5213126;27;20008;-64
2024/04/25 03:14:29;;;;;;;0.00;0.00;;;5.10;99.90;;;;;;5245430;27;20007;-65
2024/04/25 03:16:56;;;;;;;0.00;0.00;;;5.10;99.90;;;;;;5253758;27;20588;-64
2024/04/25 03:19:22;;;;;;;0.00;0.00;;;5.00;99.90;;;;;;5206398;27;20532;-64
2024/04/25 03:21:48;;;;;;;0.20;0.20;;;5.00;99.90;;;;;;5236898;27;20007;-64
2024/04/25 03:24:15;;;;;;;0.00;0.00;;;4.90;99.90;;;;;;5244209;27;20509;-64
2024/04/25 03:26:41;;;;;;;0.00;0.00;;;5.00;99.90;;;;;;5250728;27;20011;-64
2024/04/25 03:29:17;;;;;;;0.00;0.00;;;4.90;99.90;;;;;;5225955;27;20015;-64
2024/04/25 03:32:02;;;;;;;0.00;0.00;;;4.90;99.90;;;;;;5196682;27;20007;-65
2024/04/25 03:34:29;;;;;;;0.00;0.00;;;4.90;99.90;;;;;;5242730;27;20405;-64
2024/04/25 03:36:57;;;;;;;0.00;0.00;;;5.00;99.90;;;;;;5204620;27;20034;-64
2024/04/25 03:39:43;;;;;;;0.00;0.00;;;5.00;99.90;;;;;;5197774;27;20004;-65
2024/04/25 03:42:10;;;;;;;0.10;0.10;;;4.90;99.90;;;;;;5233882;27;20040;-65
2024/04/25 03:44:55;;;;;;;0.10;0.10;;;4.90;99.90;;;;;;5210097;27;20058;-65
2024/04/25 03:47:21;;;;;;;0.00;0.00;;;4.90;99.90;;;;;;5246958;27;20003;-65
2024/04/25 03:49:50;;;;;;;0.00;0.00;;;4.90;99.90;;;;;;5240246;27;20624;-64
2024/04/25 03:52:17;;;;;;;0.10;0.10;;;5.00;99.90;;;;;;5247614;27;20011;-64
2024/04/25 03:54:43;;;;;;;0.00;0.00;;;4.90;99.90;;;;;;5234132;27;20086;-64
2024/04/25 03:57:29;;;;;;;0.00;0.00;;;4.90;99.90;;;;;;5224743;27;20018;-65
2024/04/25 03:59:54;;;;;;;0.00;0.00;;;4.90;99.90;;;;;;5235791;27;20007;-64
2024/04/25 04:02:20;;;;;;;0.10;0.10;;;4.90;99.90;;;;;;5208818;27;20022;-65
2024/04/25 04:05:07;;;;;;;0.00;0.00;;;4.90;99.90;;;;;;5217507;27;20479;-65
2024/04/25 04:07:33;;;;;;;2.38;0.10;;;4.90;99.90;;;;;;5241430;27;20015;-64
2024/04/25 04:09:59;;;;;;;0.00;0.00;;;4.90;99.90;;;;;;5239519;27;20322;-65
2024/04/25 04:12:31;;;;;;;0.00;0.00;;;4.90;99.90;;;;;;5222211;27;20460;-64
2024/04/25 04:14:57;;;;;;;0.00;0.00;;;4.80;99.90;;;;;;5229723;27;20082;-65
2024/04/25 04:17:44;;;;;;;2.78;0.20;;;4.90;99.90;;;;;;5189073;27;20011;-63
2024/04/25 04:20:10;;;;;;;0.00;0.00;;;4.90;99.90;;;;;;5230497;27;20031;-64
2024/04/25 04:22:36;;;;;;;0.00;0.00;;;4.90;99.90;;;;;;5194962;27;20011;-64
2024/04/25 04:25:04;;;;;;;0.00;0.00;;;4.90;99.90;;;;;;5230383;27;20836;-64
2024/04/25 04:27:30;;;;;;;0.00;0.00;;;5.00;99.90;;;;;;5216102;27;20059;-64
2024/04/25 04:29:56;;;;;;;0.00;0.00;;;4.90;99.90;;;;;;5230555;27;20011;-63
2024/04/25 04:32:23;;;;;;;0.00;0.00;;;4.90;99.90;;;;;;5217421;27;20024;-64
2024/04/25 04:34:49;;;;;;;0.00;0.00;;;4.90;99.90;;;;;;5220614;27;20049;-64
2024/04/25 04:37:15;;;;;;;0.00;0.00;;;4.90;99.90;;;;;;5197787;27;20011;-64
2024/04/25 04:39:41;;;;;;;0.00;0.00;;;4.90;99.90;;;;;;5176691;27;20360;-64
2024/04/25 04:42:07;;;;;;;0.00;0.00;;;4.90;99.90;;;;;;5227564;27;20011;-64
2024/04/25 04:44:32;;;;;;;0.38;0.08;;;5.00;99.90;;;;;;5227753;27;20021;-64
2024/04/25 04:46:58;;;;;;;0.00;0.00;;;5.00;99.90;;;;;;5239728;27;20003;-64
2024/04/25 04:49:24;;;;;;;0.00;0.00;;;5.10;99.90;;;;;;5227378;27;20019;-65
2024/04/25 04:51:50;;;;;;;0.00;0.00;;;5.00;99.90;;;;;;5200334;27;20011;-64
2024/04/25 04:54:16;;;;;;;0.80;0.10;;;5.00;99.90;;;;;;5202065;27;20050;-64
2024/04/25 04:56:44;;;;;;;0.00;0.00;;;5.00;99.90;;;;;;5192812;27;20378;-64
2024/04/25 04:59:10;;;;;;;0.05;0.00;;;5.00;99.90;;;;;;5215496;27;20461;-64
2024/04/25 05:01:36;;;;;;;0.00;0.00;;;5.00;90.90;;;;;;5228948;27;20358;-64
2024/04/25 05:04:02;;;;;;;0.10;0.10;;;5.00;52.10;;;;;;5231047;27;20019;-64
2024/04/25 05:06:28;;;;;;;0.05;0.05;;;5.00;33.80;;;;;;5230745;27;20015;-64
2024/04/25 05:08:53;;;;;;;0.00;0.00;;;5.10;21.60;;;;;;5229974;27;20103;-64
2024/04/25 05:11:20;;;;;;;0.00;0.00;;;5.10;12.50;;;;;;5224462;27;20086;-64
2024/04/25 05:13:46;;;;;;;0.00;0.00;;;5.20;17.30;;;;;;5217731;27;20018;-64
2024/04/25 05:16:12;;;;;;;0.00;0.00;;;5.20;1.00;;;;;;5231885;27;19999;-64
2024/04/25 05:18:44;;;;;;;0.00;0.00;;;5.30;1.00;;;;;;5231590;27;20011;-64
2024/04/25 05:21:09;;;;;;;0.00;0.00;;;5.30;1.00;;;;;;5172141;27;20622;-64
2024/04/25 05:23:35;;;;;;;0.00;0.00;;;5.40;1.00;;;;;;5216683;27;20019;-64
2024/04/25 05:26:02;;;;;;;0.00;0.00;;;5.40;1.00;;;;;;5229977;27;20022;-64
2024/04/25 05:28:28;;;;;;;0.00;0.00;;;5.50;1.00;;;;;;5223160;27;20578;-64
2024/04/25 05:30:54;;;;;;;0.00;0.00;;;5.50;1.00;;;;;;5220039;27;20014;-64
2024/04/25 05:33:19;;;;;;;0.00;0.00;;;5.50;1.00;;;;;;5231885;27;20029;-64
2024/04/25 05:35:48;;;;;;;0.00;0.00;;;5.60;1.00;;;;;;5230674;27;20082;-64
2024/04/25 05:38:13;;;;;;;0.03;0.03;;;5.60;1.00;;;;;;5228842;27;20010;-64
2024/04/25 05:40:39;;;;;;;0.00;0.00;;;5.70;1.00;;;;;;5215439;27;20003;-64
2024/04/25 05:43:05;;;;;;;0.03;0.03;;;5.70;1.00;;;;;;5227282;27;20026;-64
2024/04/25 05:45:31;;;;;;;0.00;0.00;;;5.80;1.00;;;;;;5209638;27;20106;-64
2024/04/25 05:47:57;;;;;;;0.00;0.00;;;5.80;1.00;;;;;;5234814;27;20003;-64
2024/04/25 05:50:22;;;;;;;0.00;0.00;;;5.80;1.00;;;;;;5220470;27;20000;-64
2024/04/25 05:52:48;;;;;;;0.00;0.00;;;5.90;1.00;;;;;;5211777;27;20501;-64
2024/04/25 05:55:15;;;;;;;0.00;0.00;;;6.00;1.00;;;;;;5226470;27;20025;-64
2024/04/25 05:57:41;;;;;;;0.00;0.00;;;6.00;99.90;;;;;;5230789;27;20011;-64
2024/04/25 06:00:07;;;;;;;0.00;0.00;;;6.00;99.90;;;;;;5194467;27;20006;-63
2024/04/25 06:02:33;;;;;;;0.00;0.00;;;6.10;99.90;;;;;;5230696;27;20473;-63
2024/04/25 06:04:59;;;;;;;0.00;0.00;;;6.20;99.90;;;;;;5214916;27;20426;-63
2024/04/25 06:07:25;;;;;;;0.00;0.00;;;6.30;99.90;;;;;;5230841;27;20068;-63
2024/04/25 06:09:54;;;;;;;0.00;0.00;;;6.40;99.90;;;;;;5229650;27;20588;-63
2024/04/25 06:12:20;;;;;;;0.00;0.00;;;6.60;99.90;;;;;;5205396;27;20347;-63
2024/04/25 06:14:46;;;;;;;0.00;0.00;;;6.60;99.90;;;;;;5216393;27;20026;-63
2024/04/25 06:17:11;;;;;;;0.00;0.00;;;6.70;99.90;;;;;;5230377;27;20007;-63
2024/04/25 06:19:37;;;;;;;0.00;0.00;;;6.80;99.90;;;;;;5231245;27;20418;-65
2024/04/25 06:22:03;;;;;;;0.00;0.00;;;6.80;10.20;;;;;;5211098;27;20004;-62
2024/04/25 06:24:29;;;;;;;0.00;0.00;;;6.90;1.00;;;;;;5195978;27;20018;-62
2024/04/25 06:26:56;;;;;;;0.00;0.00;;;7.00;1.00;;;;;;5224625;27;20021;-63
2024/04/25 06:29:22;;;;;;;0.00;0.00;;;7.00;99.90;;;;;;5230668;27;20011;-63
2024/04/25 06:31:48;;;;;;;0.00;0.00;;;7.20;99.90;;;;;;5228879;27;20007;-62
2024/04/25 06:34:14;;;;;;;0.00;0.00;;;7.20;99.90;;;;;;5231061;27;20674;-63
2024/04/25 06:36:40;;;;;;;0.00;0.00;;;7.40;99.90;;;;;;5215815;27;20007;-62
2024/04/25 06:39:07;;;;;;;0.00;0.00;;;7.50;99.90;;;;;;5223932;27;20003;-64
2024/04/25 06:41:32;;;;;;;0.00;0.00;;;7.50;99.90;;;;;;5227919;27;20003;-63
2024/04/25 06:43:58;;;;;;;0.00;0.00;;;7.60;99.90;;;;;;5225978;27;20017;-63
2024/04/25 06:46:24;;;;;;;0.00;0.00;;;7.70;99.90;;;;;;5236261;27;20007;-63
2024/04/25 06:48:50;;;;;;;0.00;0.00;;;7.70;99.90;;;;;;5239255;27;20003;-63
2024/04/25 06:51:21;;;;;;;0.00;0.00;;;7.70;99.90;;;;;;5241098;27;20054;-63
2024/04/25 06:53:47;;;;;;;0.00;0.00;;;7.70;99.90;;;;;;5222905;27;20520;-63
2024/04/25 06:56:13;;;;;;;0.00;0.00;;;7.90;99.90;;;;;;5234250;27;19999;-63
2024/04/25 06:58:39;;;;;;;0.00;0.00;;;7.90;99.90;;;;;;5242305;27;20013;-64
2024/04/25 07:01:06;;;;;;;0.00;0.00;;;7.90;99.90;;;;;;5233890;27;20014;-64
2024/04/25 07:03:32;;;;;;;0.00;0.00;;;8.00;99.90;;;;;;5242334;27;20007;-63
2024/04/25 07:05:58;;;;;;;0.00;0.00;;;8.00;99.90;;;;;;5201639;27;20378;-63
2024/04/25 07:08:24;;;;;;;0.00;0.00;;;8.00;99.90;;;;;;5236994;27;20085;-64
2024/04/25 07:10:50;;;;;;;0.00;0.00;;;8.20;99.90;;;;;;5234017;27;20499;-64
2024/04/25 07:13:16;;;;;;;0.00;0.00;;;8.20;99.90;;;;;;5244045;27;20011;-63
2024/04/25 07:15:42;;;;;;;0.00;0.00;;;8.20;99.90;;;;;;5239918;27;20042;-63
2024/04/25 07:18:08;;;;;;;0.00;0.00;;;8.30;99.90;;;;;;5251097;27;20476;-63
2024/04/25 07:20:34;;;;;;;0.00;0.00;;;8.20;1.00;;;;;;5238925;27;20465;-63
2024/04/25 07:23:01;;;;;;;0.00;0.00;;;8.10;7.50;;;;;;5230422;27;20022;-63
2024/04/25 07:25:27;;;;;;;0.00;0.00;;;8.00;1.00;;;;;;5241279;27;20018;-64
2024/04/25 07:27:57;;;;;;;0.00;0.00;;;7.80;1.00;;;;;;5230360;27;20006;-63
2024/04/25 07:30:22;;;;;;;0.00;0.00;;;7.70;72.50;;;;;;5227900;27;20473;-63
2024/04/25 07:32:54;;;;;;;0.08;0.00;;;7.50;7.40;;;;;;5231876;27;20007;-63
2024/04/25 07:35:20;;;;;;;0.00;0.00;;;7.50;99.90;;;;;;5230867;27;20350;-63
2024/04/25 07:37:45;;;;;;;0.00;0.00;;;7.50;99.90;;;;;;5249822;27;20010;-64
2024/04/25 07:40:11;;;;;;;0.00;0.00;;;7.60;99.90;;;;;;5244158;27;20520;-63
2024/04/25 07:42:37;;;;;;;0.00;0.00;;;7.70;99.90;;;;;;5210978;27;20042;-64
2024/04/25 07:45:04;;;;;;;0.00;0.00;;;7.70;60.20;;;;;;5231421;27;20349;-63
2024/04/25 07:47:30;;;;;;;0.00;0.00;;;7.80;99.90;;;;;;5250632;27;20333;-63
2024/04/25 07:49:57;;;;;;;0.00;0.00;;;7.80;99.90;;;;;;5234756;27;20859;-63
2024/04/25 07:52:23;;;;;;;0.00;0.00;;;8.00;99.90;;;;;;5235333;27;19999;-63
2024/04/25 07:54:49;;;;;;;0.00;0.00;;;8.20;99.90;;;;;;5234345;27;20018;-63
2024/04/25 07:57:15;;;;;;;0.00;0.00;;;8.40;99.90;;;;;;5236275;27;20010;-63
2024/04/25 07:59:42;;;;;;;0.00;0.00;;;8.50;84.10;;;;;;5249257;27;20356;-63
2024/04/25 08:02:08;;;;;;;0.00;0.00;;;8.40;1.00;;;;;;5245187;27;20014;-63
2024/04/25 08:04:34;;;;;;;0.00;0.00;;;8.40;99.90;;;;;;5235434;27;20477;-63
2024/04/25 08:07:00;;;;;;;0.00;0.00;;;8.50;99.90;;;;;;5238208;27;20057;-63
2024/04/25 08:09:26;;;;;;;0.20;0.20;;;8.60;99.90;;;;;;5228201;27;20019;-63
2024/04/25 08:11:52;;;;;;;0.00;0.00;;;8.70;1.00;;;;;;5234291;27;20086;-62
2024/04/25 08:14:21;;;;;;;0.00;0.00;;;8.80;99.90;;;;;;5233316;27;20469;-63
2024/04/25 08:16:47;;;;;;;0.00;0.00;;;8.80;99.90;;;;;;5233119;27;20516;-63
2024/04/25 08:19:15;;;;;;;0.00;0.00;;;8.70;99.90;;;;;;5233587;27;20022;-64
2024/04/25 08:21:41;;;;;;;0.05;0.05;;;8.90;99.90;;;;;;5236402;27;20415;-64
2024/04/25 08:24:07;;;;;;;0.05;0.05;;;9.10;99.90;;;;;;5226215;27;20011;-64
2024/04/25 08:26:33;;;;;;;0.00;0.00;;;8.90;99.90;;;;;;5245416;27;20017;-64
2024/04/25 08:29:00;;;;;;;0.10;0.10;;;8.70;99.90;;;;;;5198912;27;20509;-63
2024/04/25 08:31:26;;;;;;;0.10;0.00;;;8.40;99.90;;;;;;5251393;27;20022;-63
2024/04/25 08:33:52;;;;;;;0.00;0.00;;;8.30;99.90;;;;;;5236086;27;20342;-63
2024/04/25 08:36:18;;;;;;;0.00;0.00;;;8.20;99.90;;;;;;5239649;27;20022;-63
2024/04/25 08:38:44;;;;;;;0.00;0.00;;;8.10;1.00;;;;;;5206076;27;20003;-63
2024/04/25 08:41:12;;;;;;;0.10;0.10;;;8.10;1.00;;;;;;5227985;27;20021;-63
2024/04/25 08:43:43;;;;;;;0.15;0.00;;;8.00;1.00;;;;;;5248072;27;20049;-63
2024/04/25 08:46:16;;;;;;;0.13;0.10;;;7.90;99.90;;;;;;5226871;27;20556;-64
2024/04/25 08:48:46;;;;;;;0.10;0.00;;;7.80;99.90;;;;;;5224122;27;20510;-63
2024/04/25 08:51:16;;;;;;;0.10;0.10;;;7.60;99.90;;;;;;5227652;27;20331;-63
2024/04/25 08:53:44;;;;;;;1.20;0.10;;;7.50;1.00;;;;;;5228723;27;20003;-64
2024/04/25 08:56:12;;;;;;;0.00;0.00;;;7.40;1.00;;;;;;5216982;27;20085;-64
2024/04/25 08:58:38;;;;;;;0.28;0.00;;;7.30;1.00;;;;;;5235930;27;20022;-63
2024/04/25 09:01:07;;;;;;;0.00;0.00;;;7.30;1.00;;;;;;5234160;27;20123;-64
2024/04/25 09:03:33;;;;;;;0.00;0.00;;;7.40;1.00;;;;;;5234918;27;20010;-63
2024/04/25 09:06:00;;;;;;;1.65;0.10;;;7.60;1.00;;;;;;5184643;27;20488;-63
2024/04/25 09:08:28;;;;;;;0.00;0.00;;;8.00;1.00;;;;;;5199474;27;20003;-63
2024/04/25 09:10:54;;;;;;;0.00;0.00;;;8.20;99.90;;;;;;5228142;27;20018;-63
2024/04/25 09:13:21;;;;;;;0.00;0.00;;;8.30;1.00;;;;;;5200087;27;20003;-64
2024/04/25 09:15:48;;;;;;;0.10;0.10;;;8.20;1.00;;;;;;5199605;27;20379;-63
2024/04/25 09:18:14;;;;;;;0.55;0.10;;;8.10;1.00;;;;;;5230297;27;20007;-64
2024/04/25 09:20:40;;;;;;;0.28;0.13;;;8.00;1.00;;;;;;5226324;27;20033;-63
2024/04/25 09:23:06;;;;;;;0.08;0.00;;;7.90;1.00;;;;;;5207893;27;20481;-63
2024/04/25 09:25:32;;;;;;;0.00;0.00;;;7.70;99.90;;;;;;5229557;27;19999;-63
2024/04/25 09:28:01;;;;;;;0.00;0.00;;;7.70;1.00;;;;;;5217725;27;20011;-63
2024/04/25 09:30:30;;;;;;;0.00;0.00;;;7.60;1.00;;;;;;5227245;27;20008;-63
2024/04/25 09:32:56;;;;;;;0.00;0.00;;;7.80;1.00;;;;;;5213697;27;20012;-63
2024/04/25 09:35:21;;;;;;;0.00;0.00;;;7.90;1.00;;;;;;5207583;27;20345;-63
2024/04/25 09:37:48;;;;;;;0.00;0.00;;;8.00;17.50;;;;;;5236623;27;20018;-63
2024/04/25 09:40:13;;;;;;;0.10;0.10;;;8.20;34.50;;;;;;5200815;27;20114;-62
2024/04/25 09:42:40;;;;;;;0.00;0.00;;;8.30;55.90;;;;;;5228216;27;20007;-63
2024/04/25 09:45:12;;;;;;;0.00;0.00;;;8.40;42.20;;;;;;5234704;27;20017;-63
2024/04/25 09:47:53;;;;;;;0.00;0.00;;;8.40;1.00;;;;;;5227923;27;20104;-64
2024/04/25 09:50:43;;;;;;;0.00;0.00;;;8.40;1.00;;;;;;5230093;27;19998;-63
2024/04/25 09:53:22;;;;;;;0.00;0.00;;;8.20;1.00;;;;;;5236020;27;20099;-62
2024/04/25 09:55:50;;;;;;;0.00;0.00;;;8.20;1.00;;;;;;5207882;27;20011;-63
2024/04/25 09:58:34;;;;;;;0.00;0.00;;;8.30;1.00;;;;;;5225502;27;20011;-63
2024/04/25 10:01:01;;;;;;;0.00;0.00;;;8.40;71.80;;;;;;5230142;27;20064;-63
2024/04/25 10:03:27;;;;;;;0.00;0.00;;;8.50;97.30;;;;;;5232791;27;20003;-63
2024/04/25 10:05:53;;;;;;;0.00;0.00;;;8.70;99.90;;;;;;5227373;27;20019;-63
2024/04/25 10:08:19;;;;;;;0.08;0.00;;;8.80;99.80;;;;;;5218654;27;19999;-63
2024/04/25 10:10:45;;;;;;;0.00;0.00;;;9.00;93.00;;;;;;5222802;27;20443;-62
2024/04/25 10:13:14;;;;;;;0.00;0.00;;;9.10;1.00;;;;;;5224768;27;20019;-62
2024/04/25 10:15:40;;;;;;;0.00;0.00;;;9.20;1.00;;;;;;5193358;27;20036;-62
2024/04/25 10:18:09;;;;;;;0.00;0.00;;;9.30;99.90;;;;;;5212468;27;20011;-62
2024/04/25 10:20:35;;;;;;;0.00;0.00;;;9.30;99.90;;;;;;5231065;27;20022;-62
2024/04/25 10:23:01;;;;;;;0.00;0.00;;;9.40;99.90;;;;;;5219070;27;20010;-62
2024/04/25 10:25:28;;;;;;;0.00;0.00;;;9.40;99.90;;;;;;5238484;27;20010;-62
2024/04/25 10:28:02;;;;;;;0.00;0.00;;;9.50;99.90;;;;;;5241911;27;20014;-62
2024/04/25 10:30:28;;;;;;;0.00;0.00;;;9.60;99.90;;;;;;5215391;27;20044;-63
2024/04/25 10:32:55;;;;;;;0.00;0.00;;;9.60;99.90;;;;;;5234060;27;20026;-63
2024/04/25 10:35:21;;;;;;;0.00;0.00;;;9.70;75.50;;;;;;5231271;27;20735;-63
2024/04/25 10:37:50;;;;;;;0.00;0.00;;;9.80;99.90;;;;;;5222228;27;20025;-62
2024/04/25 10:40:16;;;;;;;0.00;0.00;;;10.00;99.90;;;;;;5236185;27;20115;-62
2024/04/25 10:42:43;;;;;;;0.10;0.00;;;10.30;99.90;;;;;;5230862;27;20026;-62
2024/04/25 10:45:09;;;;;;;0.00;0.00;;;10.40;9.80;;;;;;5209033;27;20002;-63
2024/04/25 10:47:35;;;;;;;0.47;0.00;;;10.60;1.00;;;;;;5256672;27;20024;-62
2024/04/25 10:50:02;;;;;;;0.00;0.00;;;11.00;24.60;;;;;;5237843;27;20026;-62
2024/04/25 10:52:29;;;;;;;0.00;0.00;;;11.20;99.90;;;;;;5248589;27;20485;-62
2024/04/25 10:54:55;;;;;;;0.00;0.00;;;11.60;99.90;;;;;;5205105;27;20003;-62
2024/04/25 10:57:21;;;;;;;0.00;0.00;;;11.80;1.00;;;;;;5171739;27;20003;-62
2024/04/25 10:59:47;;;;;;;0.00;0.00;;;11.80;1.00;;;;;;5225004;27;20003;-63
2024/04/25 11:02:14;;;;;;;0.00;0.00;;;11.90;1.00;;;;;;5202014;27;20011;-62
2024/04/25 11:04:42;;;;;;;0.00;0.00;;;11.80;99.90;;;;;;5231291;27;20040;-62
2024/04/25 11:07:10;;;;;;;0.00;0.00;;;11.70;99.90;;;;;;5234498;27;20337;-62
2024/04/25 11:09:36;;;;;;;0.00;0.00;;;11.60;99.90;;;;;;5231005;27;20003;-62
2024/04/25 11:12:02;;;;;;;0.00;0.00;;;11.40;99.90;;;;;;5185792;27;20015;-63
2024/04/25 11:14:28;;;;;;;0.00;0.00;;;11.20;99.90;;;;;;5233167;27;20358;-62
2024/04/25 11:16:55;;;;;;;0.32;0.10;;;11.20;99.90;;;;;;5236171;27;20192;-63
2024/04/25 11:19:21;;;;;;;0.00;0.00;;;11.20;99.90;;;;;;5208311;27;20097;-63
2024/04/25 11:21:48;;;;;;;0.00;0.00;;;11.20;99.90;;;;;;5239377;27;20006;-63
2024/04/25 11:24:19;;;;;;;0.28;0.28;;;11.30;99.90;;;;;;5237838;27;20050;-63
2024/04/25 11:26:47;;;;;;;0.00;0.00;;;11.50;99.90;;;;;;5236648;27;20014;-63
2024/04/25 11:29:13;;;;;;;0.00;0.00;;;11.50;99.90;;;;;;5219543;27;20003;-63
2024/04/25 11:31:41;;;;;;;0.10;0.10;;;11.60;99.90;;;;;;5232007;27;20007;-63
2024/04/25 11:34:21;;;;;;;0.10;0.10;;;11.70;99.90;;;;;;5222921;27;20448;-63
2024/04/25 11:37:02;;;;;;;0.13;0.03;;;11.90;99.90;;;;;;5224254;27;20012;-63
2024/04/25 11:39:30;;;;;;;0.00;0.00;;;11.90;99.90;;;;;;5231556;27;19999;-63
2024/04/25 11:41:58;;;;;;;0.00;0.00;;;11.90;99.90;;;;;;5231473;27;20007;-63
2024/04/25 11:44:26;;;;;;;0.08;0.00;;;11.80;99.90;;;;;;5232765;27;20003;-64
2024/04/25 11:46:53;;;;;;;0.00;0.00;;;11.90;99.90;;;;;;5252557;27;20029;-64
2024/04/25 11:49:19;;;;;;;0.00;0.00;;;11.90;99.90;;;;;;5241396;27;20077;-63
2024/04/25 11:51:46;;;;;;;0.00;0.00;;;12.00;99.90;;;;;;5249560;27;20010;-63
2024/04/25 11:54:12;;;;;;;0.03;0.03;;;12.10;99.90;;;;;;5235351;27;20049;-63
2024/04/25 11:56:39;;;;;;;0.10;0.10;;;12.20;99.90;;;;;;5235682;27;20076;-64
2024/04/25 11:59:05;;;;;;;0.38;0.10;;;12.40;99.90;;;;;;5234809;27;20003;-64
2024/04/25 12:01:31;;;;;;;0.00;0.00;;;12.40;99.90;;;;;;5228724;27;20017;-63
2024/04/25 12:03:57;;;;;;;0.00;0.00;;;12.40;99.90;;;;;;5202275;27;20093;-63
2024/04/25 12:06:23;;;;;;;0.00;0.00;;;12.40;99.90;;;;;;5229225;27;20003;-64
2024/04/25 12:08:49;;;;;;;0.00;0.00;;;12.30;99.90;;;;;;5233087;27;20025;-63
2024/04/25 12:11:15;;;;;;;0.00;0.00;;;12.10;99.90;;;;;;5238658;27;20489;-64
2024/04/25 12:13:44;;;;;;;0.00;0.00;;;12.00;99.90;;;;;;5230171;27;20491;-64
2024/04/25 12:16:11;;;;;;;0.00;0.00;;;12.00;99.90;;;;;;5227780;27;20003;-63
2024/04/25 12:18:38;;;;;;;0.00;0.00;;;12.00;99.90;;;;;;5168657;27;20482;-64
2024/04/25 12:21:05;;;;;;;0.00;0.00;;;12.10;99.90;;;;;;5251295;27;20030;-64
2024/04/25 12:23:33;;;;;;;0.00;0.00;;;12.10;99.90;;;;;;5212283;27;20828;-64
2024/04/25 12:26:02;;;;;;;0.00;0.00;;;12.20;99.90;;;;;;5235679;27;20472;-64
2024/04/25 12:28:32;;;;;;;0.00;0.00;;;12.10;99.90;;;;;;5230109;27;20011;-63
2024/04/25 12:30:58;;;;;;;3.97;0.00;;;12.10;99.90;;;;;;5208547;27;20014;-63
2024/04/25 12:33:25;;;;;;;0.00;0.00;;;12.20;99.90;;;;;;5191288;27;20007;-64
2024/04/25 12:35:51;;;;;;;0.00;0.00;;;12.40;99.90;;;;;;5239331;27;20571;-64
2024/04/25 12:38:17;;;;;;;0.00;0.00;;;12.70;99.90;;;;;;5227185;27;20029;-64
2024/04/25 12:40:43;;;;;;;0.00;0.00;;;12.70;99.90;;;;;;5205456;27;20002;-63
2024/04/25 12:43:09;;;;;;;0.00;0.00;;;12.60;99.90;;;;;;5235501;27;20033;-63
2024/04/25 12:45:35;;;;;;;0.00;0.00;;;12.40;99.90;;;;;;5229927;27;20018;-61
2024/04/25 12:48:03;;;;;;;0.00;0.00;;;12.30;99.90;;;;;;5232334;27;20034;-61
2024/04/25 12:50:29;;;;;;;0.00;0.00;;;12.00;99.90;;;;;;5246979;27;20039;-61
2024/04/25 12:52:56;;;;;;;0.00;0.00;;;11.80;99.90;;;;;;5222841;27;20008;-61
2024/04/25 12:55:24;;;;;;;0.00;0.00;;;11.60;99.90;;;;;;5236697;27;20323;-62
2024/04/25 12:57:54;;;;;;;0.10;0.10;;;11.40;99.90;;;;;;5230599;27;20085;-61
2024/04/25 13:00:24;;;;;;;0.10;0.10;;;11.30;99.90;;;;;;5221983;27;20002;-62
2024/04/25 13:02:51;;;;;;;;;;;11.00;99.90;;;;;;5234115;27;20014;-61
2024/04/25 13:05:18;;;;;;;0.00;0.00;;;10.60;99.90;;;;;;5239200;27;20000;-62